createdAt,value
2018-06-03T00:05:33.320Z,99728.20
2018-06-03T00:11:37.361Z,99729.45
2018-06-03T00:17:41.433Z,99728.31
2018-06-03T00:23:45.469Z,99729.34
2018-06-03T00:29:49.894Z,99733.20
2018-06-03T00:36:12.924Z,99738.67
2018-06-03T00:42:17.315Z,99734.37
2018-06-03T00:48:21.720Z,99730.94
2018-06-03T00:54:26.907Z,99724.94
2018-06-03T01:00:31.275Z,99732.99
2018-06-03T01:06:35.636Z,99728.53
2018-06-03T01:12:39.946Z,99724.64
2018-06-03T01:18:45.138Z,99727.05
2018-06-03T01:24:49.883Z,99733.00
2018-06-03T01:30:54.307Z,99719.80
2018-06-03T01:36:58.665Z,99720.06
2018-06-03T01:43:03.019Z,99717.66
2018-06-03T01:49:07.364Z,99711.94
2018-06-03T01:55:12.485Z,99712.30
2018-06-03T02:01:16.845Z,99707.80
2018-06-03T02:07:22.257Z,99701.39
2018-06-03T02:13:26.677Z,99709.16
2018-06-03T02:19:31.084Z,99703.67
2018-06-03T02:25:36.198Z,99708.59
2018-06-03T02:31:40.562Z,99710.84
2018-06-03T02:37:44.912Z,99709.84
2018-06-03T02:43:50.202Z,99711.11
2018-06-03T02:49:55.408Z,99717.40
2018-06-03T02:56:00.555Z,99712.16
2018-06-03T03:02:05.087Z,99717.68
2018-06-03T03:08:10.204Z,99718.02
2018-06-03T03:14:14.546Z,99728.89
2018-06-03T03:20:19.289Z,99729.04
2018-06-03T03:26:23.639Z,99735.87
2018-06-03T03:32:28.436Z,99728.34
2018-06-03T03:38:32.824Z,99724.91
2018-06-03T03:44:37.149Z,99718.31
2018-06-03T03:50:41.551Z,99716.80
2018-06-03T03:56:45.922Z,99714.02
2018-06-03T04:02:50.278Z,99722.16
2018-06-03T04:08:54.871Z,99720.81
2018-06-03T04:14:59.234Z,99719.37
2018-06-03T04:21:03.579Z,99730.94
2018-06-03T04:27:08.078Z,99730.67
2018-06-03T04:33:13.220Z,99726.82
2018-06-03T04:39:17.546Z,99730.14
2018-06-03T04:45:21.970Z,99735.90
2018-06-03T04:51:26.360Z,99736.39
2018-06-03T04:57:32.236Z,99739.37
2018-06-03T05:03:36.598Z,99740.67
2018-06-03T05:09:40.941Z,99734.20
2018-06-03T05:15:46.140Z,99736.50
2018-06-03T05:21:50.708Z,99744.47
2018-06-03T05:27:56.226Z,99743.27
2018-06-03T05:34:01.352Z,99742.92
2018-06-03T05:40:05.705Z,99747.18
2018-06-03T05:46:10.059Z,99742.23
2018-06-03T05:52:15.219Z,99748.59
2018-06-03T05:58:19.661Z,99752.34
2018-06-03T06:04:25.009Z,99759.74
2018-06-03T06:10:29.366Z,99762.80
2018-06-03T06:16:33.719Z,99764.31
2018-06-03T06:22:38.110Z,99758.73
2018-06-03T06:28:42.621Z,99759.33
2018-06-03T06:34:47.180Z,99756.92
2018-06-03T06:40:51.845Z,99761.70
2018-06-03T06:46:56.289Z,99769.30
2018-06-03T06:53:00.672Z,99763.66
2018-06-03T06:59:05.029Z,99762.59
2018-06-03T07:05:10.230Z,99773.16
2018-06-03T07:11:14.582Z,99772.32
2018-06-03T07:17:20.846Z,99781.63
2018-06-03T07:23:25.617Z,99787.85
2018-06-03T07:29:30.087Z,99778.88
2018-06-03T07:35:35.207Z,99777.88
2018-06-03T07:41:39.557Z,99779.11
2018-06-03T07:47:43.901Z,99779.02
2018-06-03T07:53:49.757Z,99778.86
2018-06-03T07:59:54.299Z,99783.57
2018-06-03T08:05:58.727Z,99777.81
2018-06-03T08:12:03.423Z,99774.36
2018-06-03T08:18:07.809Z,99768.75
2018-06-03T08:24:12.166Z,99771.89
2018-06-03T08:30:16.556Z,99774.38
2018-06-03T08:36:21.600Z,99778.81
2018-06-03T08:42:25.949Z,99766.18
2018-06-03T08:48:31.069Z,99762.84
2018-06-03T08:54:35.418Z,99763.16
2018-06-03T09:00:40.600Z,99764.61
2018-06-03T09:06:45.724Z,99761.70
2018-06-03T09:12:50.196Z,99767.41
2018-06-03T09:18:54.646Z,99761.11
2018-06-03T09:24:59.953Z,99761.05
2018-06-03T09:31:07.090Z,99755.36
2018-06-03T09:37:11.733Z,99748.27
2018-06-03T09:43:16.102Z,99749.92
2018-06-03T09:49:20.634Z,99742.59
2018-06-03T09:55:25.246Z,99745.54
2018-06-03T10:01:29.606Z,99740.39
2018-06-03T10:07:33.970Z,99733.22
2018-06-03T10:13:38.359Z,99732.88
2018-06-03T10:19:42.718Z,99727.06
2018-06-03T10:25:47.030Z,99725.89
2018-06-03T10:31:52.257Z,99727.48
2018-06-03T10:37:57.485Z,99733.22
2018-06-03T10:44:01.849Z,99718.02
2018-06-03T10:50:06.195Z,99716.75
2018-06-03T10:56:10.563Z,99714.55
2018-06-03T11:02:14.911Z,99708.10
2018-06-03T11:08:21.128Z,99707.90
2018-06-03T11:14:25.573Z,99698.73
2018-06-03T11:20:29.986Z,99708.27
2018-06-03T11:26:34.341Z,99704.88
2018-06-03T11:32:38.708Z,99700.98
2018-06-03T11:38:43.076Z,99701.80
2018-06-03T11:44:47.467Z,99699.16
2018-06-03T11:50:52.052Z,99694.83
2018-06-03T11:57:00.376Z,99700.77
2018-06-03T12:03:05.488Z,99705.25
2018-06-03T12:09:09.850Z,99701.98
2018-06-03T12:15:15.145Z,99702.73
2018-06-03T12:21:20.252Z,99701.70
2018-06-03T12:27:25.073Z,99691.48
2018-06-03T12:33:29.457Z,99688.18
2018-06-03T12:39:33.809Z,99688.50
2018-06-03T12:45:38.214Z,99686.96
2018-06-03T12:51:42.640Z,99681.11
2018-06-03T12:57:47.002Z,99670.30
2018-06-03T13:03:52.295Z,99665.66
2018-06-03T13:09:57.560Z,99656.45
2018-06-03T13:16:49.779Z,99662.66
2018-06-03T13:22:55.917Z,99654.70
2018-06-03T13:29:01.751Z,99655.95
2018-06-03T13:35:07.571Z,99640.59
2018-06-03T13:41:13.270Z,99624.20
2018-06-03T13:47:19.421Z,99623.21
2018-06-03T13:53:25.613Z,99612.43
2018-06-03T13:59:31.272Z,99609.09
2018-06-03T14:05:37.004Z,99608.95
2018-06-03T14:11:42.783Z,99601.19
2018-06-03T14:17:48.393Z,99596.84
2018-06-03T14:23:54.249Z,99582.92
2018-06-03T14:30:00.182Z,99585.18
2018-06-03T14:36:05.945Z,99592.28
2018-06-03T14:42:12.033Z,99583.22
2018-06-03T14:48:17.784Z,99579.05
2018-06-03T14:54:24.189Z,99574.06
2018-06-03T15:00:30.476Z,99562.72
2018-06-03T15:06:36.244Z,99558.66
2018-06-03T15:12:41.993Z,99553.79
2018-06-03T15:18:47.681Z,99548.27
2018-06-03T15:24:53.835Z,99545.77
2018-06-03T15:30:59.551Z,99543.48
2018-06-03T15:37:05.400Z,99534.84
2018-06-03T15:43:11.077Z,99529.63
2018-06-03T15:49:16.700Z,99529.08
2018-06-03T15:55:23.568Z,99528.53
2018-06-03T16:01:29.404Z,99523.23
2018-06-03T16:07:35.054Z,99522.23
2018-06-03T16:13:40.831Z,99518.27
2018-06-03T16:19:46.403Z,99508.39
2018-06-03T16:25:52.278Z,99506.34
2018-06-03T16:31:57.977Z,99500.52
2018-06-03T16:38:03.617Z,99501.02
2018-06-03T16:44:09.279Z,99491.89
2018-06-03T16:50:14.924Z,99491.96
2018-06-03T16:56:20.890Z,99491.77
2018-06-03T17:02:26.764Z,99499.80
2018-06-03T17:08:32.437Z,99486.10
2018-06-03T17:14:38.158Z,99478.98
2018-06-03T17:20:43.917Z,99475.22
2018-06-03T17:26:49.962Z,99467.67
2018-06-03T17:32:55.934Z,99466.70
2018-06-03T17:39:01.577Z,99453.44
2018-06-03T17:45:07.279Z,99453.21
2018-06-03T17:51:12.937Z,99445.13
2018-06-03T17:57:18.605Z,99451.11
2018-06-03T18:03:25.038Z,99449.28
2018-06-03T18:09:30.845Z,99445.05
2018-06-03T18:15:36.504Z,99432.75
2018-06-03T18:21:42.534Z,99436.54
2018-06-03T18:27:48.433Z,99440.53
2018-06-03T18:33:54.752Z,99429.97
2018-06-03T18:40:00.414Z,99428.76
2018-06-03T18:46:06.178Z,99430.45
2018-06-03T18:52:11.905Z,99432.75
2018-06-03T18:58:17.682Z,99438.52
2018-06-03T19:04:23.783Z,99428.75
2018-06-03T19:10:29.616Z,99437.03
2018-06-03T19:16:35.316Z,99437.38
2018-06-03T19:22:41.175Z,99444.52
2018-06-03T19:28:46.779Z,99446.33
2018-06-03T19:34:53.369Z,99442.53
2018-06-03T19:40:59.270Z,99439.36
2018-06-03T19:47:05.266Z,99445.84
2018-06-03T19:53:11.112Z,99450.99
2018-06-03T19:59:16.781Z,99450.72
2018-06-03T20:05:22.599Z,99458.53
2018-06-03T20:11:28.572Z,99455.56
2018-06-03T20:17:34.283Z,99450.30
2018-06-03T20:23:40.199Z,99445.13
2018-06-03T20:29:45.836Z,99460.79
2018-06-03T20:35:52.657Z,99456.48
2018-06-03T20:41:58.651Z,99456.59
2018-06-03T20:48:04.357Z,99463.92
2018-06-03T20:54:10.176Z,99463.77
2018-06-03T21:00:15.857Z,99461.98
2018-06-03T21:06:22.160Z,99466.13
2018-06-03T21:12:27.973Z,99463.95
2018-06-03T21:18:33.745Z,99460.22
2018-06-03T21:24:39.791Z,99469.74
2018-06-03T21:30:45.504Z,99467.88
2018-06-03T21:36:52.558Z,99469.52
2018-06-03T21:42:58.657Z,99473.31
2018-06-03T21:49:04.429Z,99478.31
2018-06-03T21:55:10.156Z,99475.45
2018-06-03T22:01:15.818Z,99469.81
2018-06-03T22:07:23.172Z,99474.16
2018-06-03T22:13:29.139Z,99475.70
2018-06-03T22:19:34.793Z,99474.53
2018-06-03T22:25:40.480Z,99471.34
2018-06-03T22:31:46.203Z,99467.55
2018-06-03T22:37:52.467Z,99466.28
2018-06-03T22:43:58.670Z,99466.79
2018-06-03T22:50:04.390Z,99457.59
2018-06-03T22:56:10.213Z,99458.95
2018-06-03T23:02:16.065Z,99457.38
2018-06-03T23:08:22.740Z,99457.12
2018-06-03T23:14:28.803Z,99467.20
2018-06-03T23:20:34.665Z,99450.34
2018-06-03T23:26:40.421Z,99440.41
2018-06-03T23:32:46.177Z,99434.16
2018-06-03T23:38:53.211Z,99428.78
2018-06-03T23:44:59.247Z,99429.27
2018-06-03T23:51:05.033Z,99426.55
2018-06-03T23:57:10.861Z,99421.89
